Hovedside
METAR-TAF:

METAR-TAF

Lufthavner :

La Paz, Mexico

breddegrad: 24-04N, lengdegrad: 110-22W, høyde over havet: 21 m

Gjeldene værobservasjon

Denne rapporten ble laget for 49 minutter siden, klokken 01:40 UTC
Vind 8 kt fra Sør-sørvest
Temperatur 34°C
Luftfuktighet 20%
Trykk 1004 hPa
Sikt: 16.1 km
Skyfri himmel

METAR: MMLP 200140Z 21008KT 10SM SKC 34/08 A2964

Tid: 20:29 (02:29 UTC)

Varsel

Denne rapporten ble laget for 8 timer og 50 minutter siden, klokken 17:39 UTC
Varsel gyldig fra 19. klokken 18 UTC til 20. klokken 18 UTC
Vind 10 kt fra Sør-sørvest
Sikt: 10 km
Skyfri himmel
Fra 19. klokken 2100 UTC
Vind 15 kt fra Vest-sørvest
Sikt: 10 km
Skyfri himmel
Fra 20. klokken 1200 UTC
Vind 12 kt fra Sør
Sikt: 10 km
Skyfri himmel

TAF: MMLP 191739Z 1918/2018 20010KT P6SM SKC FM192100 25015KT P6SM SKC FM201200 18012KT P6SM SKC

Værobservasjoner og værvarsel for over 4000 flyplasser (METAR- og TAF-rapporter).

Tilgjengelige stasjoner er representert av de røde og gule prikkene på kartet.

Hold musepekeren over prikken for å se navnet på stasjonen.

Klikk så for å se værobservasjoner og -varsler.

For å forandre kartet kan du klikke på den grønne knappen med svart kryss for å zoome inn, på den grønne knappen med strek for å zoome ut, eller på de grønne pilene for å se tilstøtende kart.


METAR-TAF: